createdAt,value
2018-11-06T00:00:17.351Z,50.19
2018-11-06T00:02:43.360Z,50.11
2018-11-06T00:05:09.352Z,50.10
2018-11-06T00:07:35.358Z,50.35
2018-11-06T00:10:01.345Z,50.23
2018-11-06T00:12:27.328Z,50.12
2018-11-06T00:14:53.312Z,50.06
2018-11-06T00:17:19.331Z,50.28
2018-11-06T00:19:45.329Z,49.96
2018-11-06T00:22:11.337Z,49.87
2018-11-06T00:24:37.353Z,50.11
2018-11-06T00:27:03.341Z,50.02
2018-11-06T00:29:29.346Z,50.11
2018-11-06T00:31:55.332Z,50.11
2018-11-06T00:34:21.394Z,49.77
2018-11-06T00:36:47.354Z,50.04
2018-11-06T00:39:13.367Z,49.93
2018-11-06T00:41:39.350Z,49.98
2018-11-06T00:44:05.388Z,49.64
2018-11-06T00:46:31.400Z,49.92
2018-11-06T00:48:57.408Z,49.87
2018-11-06T00:51:23.423Z,49.88
2018-11-06T00:53:49.861Z,49.79
2018-11-06T00:56:15.424Z,49.49
2018-11-06T00:58:41.416Z,49.68
2018-11-06T01:01:07.429Z,49.66
2018-11-06T01:03:33.440Z,49.56
2018-11-06T01:05:59.444Z,49.73
2018-11-06T01:08:25.454Z,49.65
2018-11-06T01:10:51.476Z,49.70
2018-11-06T01:13:17.494Z,49.70
2018-11-06T01:15:43.473Z,49.58
2018-11-06T01:18:09.465Z,49.57
2018-11-06T01:20:35.483Z,49.43
2018-11-06T01:23:01.465Z,49.55
2018-11-06T01:25:27.477Z,49.26
2018-11-06T01:27:53.459Z,49.59
2018-11-06T01:30:19.480Z,49.12
2018-11-06T01:32:45.493Z,49.51
2018-11-06T01:35:11.510Z,49.45
2018-11-06T01:37:37.515Z,49.40
2018-11-06T01:40:03.526Z,49.18
2018-11-06T01:42:29.536Z,49.43
2018-11-06T01:44:55.553Z,49.27
2018-11-06T01:47:21.532Z,49.12
2018-11-06T01:49:47.536Z,48.95
2018-11-06T01:52:13.544Z,49.29
2018-11-06T01:54:39.561Z,49.33
2018-11-06T01:57:05.590Z,49.41
2018-11-06T01:59:31.610Z,48.89
2018-11-06T02:01:57.606Z,48.89
2018-11-06T02:04:23.588Z,48.85
2018-11-06T02:06:49.635Z,48.87
2018-11-06T02:09:15.636Z,49.03
2018-11-06T02:11:41.625Z,49.30
2018-11-06T02:14:07.617Z,49.10
2018-11-06T02:16:33.622Z,49.12
2018-11-06T02:18:59.643Z,48.76
2018-11-06T02:21:25.651Z,48.75
2018-11-06T02:23:51.641Z,48.95
2018-11-06T02:26:17.620Z,49.04
2018-11-06T02:28:43.606Z,49.10
2018-11-06T02:31:09.698Z,48.60
2018-11-06T02:33:35.690Z,48.82
2018-11-06T02:36:01.706Z,49.02
2018-11-06T02:38:27.716Z,49.08
2018-11-06T02:40:53.718Z,48.68
2018-11-06T02:43:19.716Z,48.82
2018-11-06T02:45:45.695Z,48.81
2018-11-06T02:48:11.682Z,48.70
2018-11-06T02:50:37.668Z,48.58
2018-11-06T02:53:03.686Z,48.63
2018-11-06T02:55:29.702Z,48.63
2018-11-06T02:57:55.688Z,48.59
2018-11-06T03:00:21.670Z,48.82
2018-11-06T03:02:47.704Z,48.62
2018-11-06T03:05:13.715Z,48.47
2018-11-06T03:07:39.693Z,48.82
2018-11-06T03:10:05.682Z,48.69
2018-11-06T03:12:31.689Z,48.51
2018-11-06T03:14:57.696Z,48.66
2018-11-06T03:17:23.683Z,48.74
2018-11-06T03:19:49.698Z,48.51
2018-11-06T03:22:15.683Z,48.60
2018-11-06T03:24:41.678Z,48.33
2018-11-06T03:27:07.740Z,48.71
2018-11-06T03:29:33.672Z,48.64
2018-11-06T03:31:59.683Z,48.26
2018-11-06T03:34:25.707Z,48.58
2018-11-06T03:36:51.689Z,48.65
2018-11-06T03:39:17.703Z,48.66
2018-11-06T03:41:43.712Z,48.33
2018-11-06T03:44:09.784Z,48.54
2018-11-06T03:46:35.797Z,48.14
2018-11-06T03:49:01.837Z,48.18
2018-11-06T03:51:27.841Z,48.05
2018-11-06T03:53:53.851Z,48.47
2018-11-06T03:56:19.906Z,48.13
2018-11-06T03:58:45.905Z,48.25
2018-11-06T04:01:11.918Z,48.09
2018-11-06T04:03:37.926Z,48.46
2018-11-06T04:06:03.917Z,48.58
2018-11-06T04:08:29.925Z,48.17
2018-11-06T04:10:55.929Z,48.24
2018-11-06T04:13:21.915Z,48.42
2018-11-06T04:15:47.908Z,48.18
2018-11-06T04:18:13.899Z,48.21
2018-11-06T04:20:39.912Z,48.44
2018-11-06T04:23:05.926Z,48.08
2018-11-06T04:25:31.914Z,48.10
2018-11-06T04:27:57.924Z,48.33
2018-11-06T04:30:23.955Z,48.48
2018-11-06T04:32:49.940Z,48.01
2018-11-06T04:35:15.944Z,48.41
2018-11-06T04:37:41.929Z,48.43
2018-11-06T04:40:07.916Z,48.49
2018-11-06T04:42:33.900Z,47.95
2018-11-06T04:44:59.897Z,48.42
2018-11-06T04:47:25.907Z,48.26
2018-11-06T04:49:51.932Z,48.44
2018-11-06T04:52:17.986Z,48.48
2018-11-06T04:54:43.979Z,48.47
2018-11-06T04:57:09.977Z,47.98
2018-11-06T04:59:35.971Z,48.27
2018-11-06T05:02:02.055Z,48.28
2018-11-06T05:04:27.993Z,48.51
2018-11-06T05:06:54.064Z,48.17
2018-11-06T05:09:20.018Z,48.12
2018-11-06T05:11:46.004Z,48.34
2018-11-06T05:14:12.037Z,48.42
2018-11-06T05:16:38.037Z,48.29
2018-11-06T05:19:04.025Z,48.36
2018-11-06T05:21:30.026Z,48.18
2018-11-06T05:23:56.025Z,48.37
2018-11-06T05:26:22.033Z,48.31
2018-11-06T05:28:48.022Z,48.32
2018-11-06T05:31:14.015Z,48.28
2018-11-06T05:33:40.106Z,47.95
2018-11-06T05:36:06.104Z,47.74
2018-11-06T05:38:32.109Z,48.40
2018-11-06T05:40:58.114Z,48.39
2018-11-06T05:43:24.133Z,48.35
2018-11-06T05:45:50.128Z,48.34
2018-11-06T05:48:16.114Z,48.13
2018-11-06T05:50:42.124Z,48.05
2018-11-06T05:53:08.160Z,47.75
2018-11-06T05:55:34.147Z,47.64
2018-11-06T05:58:00.134Z,48.26
2018-11-06T06:00:26.198Z,47.59
2018-11-06T06:02:52.190Z,48.02
2018-11-06T06:05:18.306Z,47.93
2018-11-06T06:07:44.292Z,47.91
2018-11-06T06:10:10.301Z,48.13
2018-11-06T06:12:36.313Z,48.26
2018-11-06T06:15:02.308Z,47.95
2018-11-06T06:17:28.447Z,47.89
2018-11-06T06:19:54.440Z,48.12
2018-11-06T06:22:20.451Z,48.37
2018-11-06T06:24:46.454Z,48.55
2018-11-06T06:27:12.470Z,48.83
2018-11-06T06:29:38.502Z,48.87
2018-11-06T06:32:04.532Z,48.96
2018-11-06T06:34:30.554Z,48.99
2018-11-06T06:36:56.523Z,49.01
2018-11-06T06:39:22.545Z,48.97
2018-11-06T06:41:48.557Z,48.96
2018-11-06T06:44:14.569Z,48.79
2018-11-06T06:46:40.553Z,48.91
2018-11-06T06:49:06.543Z,48.93
2018-11-06T06:51:32.570Z,49.03
2018-11-06T06:53:58.607Z,48.96
2018-11-06T06:56:24.558Z,48.90
2018-11-06T06:58:50.546Z,49.13
2018-11-06T07:01:16.537Z,49.25
2018-11-06T07:03:42.537Z,49.42
2018-11-06T07:06:08.525Z,49.47
2018-11-06T07:08:35.589Z,49.46
2018-11-06T07:11:01.724Z,49.45
2018-11-06T07:13:27.717Z,49.73
2018-11-06T07:15:53.735Z,49.63
2018-11-06T07:18:19.688Z,49.75
2018-11-06T07:20:45.703Z,49.81
2018-11-06T07:23:11.692Z,49.79
2018-11-06T07:25:37.725Z,49.85
2018-11-06T07:28:09.081Z,49.85
2018-11-06T07:30:35.085Z,49.93
2018-11-06T07:33:01.239Z,49.96
2018-11-06T07:35:27.346Z,49.90
2018-11-06T07:37:53.307Z,50.08
2018-11-06T07:40:19.283Z,50.02
2018-11-06T07:42:45.356Z,50.44
2018-11-06T07:45:11.335Z,50.38
2018-11-06T07:47:37.323Z,50.21
2018-11-06T07:50:03.431Z,50.43
2018-11-06T07:52:29.344Z,50.52
2018-11-06T07:54:55.342Z,50.49
2018-11-06T07:57:21.323Z,50.50
2018-11-06T07:59:47.395Z,50.83
2018-11-06T08:02:13.370Z,50.71
2018-11-06T08:04:39.376Z,50.70
2018-11-06T08:07:05.410Z,50.65
2018-11-06T08:09:31.828Z,50.60
2018-11-06T08:11:57.762Z,50.46
2018-11-06T08:14:23.822Z,50.48
2018-11-06T08:16:50.349Z,50.67
2018-11-06T08:19:16.305Z,50.63
2018-11-06T08:21:42.320Z,50.71
2018-11-06T08:24:08.444Z,50.64
2018-11-06T08:26:34.495Z,50.77
2018-11-06T08:29:01.434Z,50.90
2018-11-06T08:31:28.852Z,50.69
2018-11-06T08:33:54.267Z,50.94
2018-11-06T08:36:20.424Z,50.92
2018-11-06T08:38:46.445Z,50.80
2018-11-06T08:41:12.426Z,50.74
2018-11-06T08:43:38.412Z,50.66
2018-11-06T08:46:05.594Z,50.72
2018-11-06T08:48:31.601Z,50.79
2018-11-06T08:50:57.678Z,50.80
2018-11-06T08:53:23.695Z,50.85
2018-11-06T08:55:49.677Z,50.74
2018-11-06T08:58:15.766Z,50.91
2018-11-06T09:00:41.815Z,50.83
2018-11-06T09:03:08.293Z,50.71
2018-11-06T09:05:34.298Z,50.77
2018-11-06T09:08:00.549Z,50.72
2018-11-06T09:10:26.817Z,50.60
2018-11-06T09:12:52.926Z,50.67
2018-11-06T09:15:18.954Z,50.59
2018-11-06T09:17:45.038Z,50.59
2018-11-06T09:20:11.400Z,50.64
2018-11-06T09:22:37.350Z,50.57
2018-11-06T09:25:03.646Z,50.28
2018-11-06T09:27:29.697Z,50.35
2018-11-06T09:29:55.718Z,50.31
2018-11-06T09:32:21.700Z,50.05
2018-11-06T09:34:47.920Z,50.24
2018-11-06T09:37:13.924Z,50.20
2018-11-06T09:39:39.907Z,50.22
2018-11-06T09:42:06.036Z,50.29
2018-11-06T09:46:58.124Z,50.29
2018-11-06T09:49:24.150Z,50.27
2018-11-06T09:51:50.156Z,50.24
2018-11-06T09:54:16.240Z,50.22
2018-11-06T09:56:42.202Z,50.26
2018-11-06T09:59:08.241Z,50.22
2018-11-06T10:01:34.240Z,50.27
2018-11-06T10:04:00.229Z,50.23
2018-11-06T10:06:26.361Z,50.26
2018-11-06T10:08:52.294Z,50.33
2018-11-06T10:11:18.279Z,50.35
2018-11-06T10:13:44.260Z,50.34
2018-11-06T10:16:10.307Z,50.22
2018-11-06T10:18:36.299Z,50.23
2018-11-06T10:21:02.387Z,50.42
2018-11-06T10:23:28.345Z,50.41
2018-11-06T10:25:54.347Z,50.47
2018-11-06T10:28:20.393Z,50.49
2018-11-06T10:30:46.409Z,50.51
2018-11-06T10:33:12.418Z,50.58
2018-11-06T10:35:38.453Z,50.60
2018-11-06T10:38:04.458Z,50.60
2018-11-06T10:40:30.420Z,50.54
2018-11-06T10:42:56.426Z,50.57
2018-11-06T10:45:22.500Z,50.77
2018-11-06T10:47:48.484Z,50.69
2018-11-06T10:50:14.471Z,50.64
2018-11-06T10:52:40.451Z,50.89
2018-11-06T10:55:06.497Z,50.73
2018-11-06T10:57:32.471Z,50.74
2018-11-06T10:59:58.485Z,50.91
2018-11-06T11:02:24.480Z,50.98
2018-11-06T11:04:50.503Z,50.86
2018-11-06T11:07:16.483Z,51.01
2018-11-06T11:09:42.469Z,50.96
2018-11-06T11:12:08.601Z,50.89
2018-11-06T11:14:34.610Z,50.94
2018-11-06T11:17:00.622Z,50.88
2018-11-06T11:19:26.634Z,50.79
2018-11-06T11:21:52.732Z,51.10
2018-11-06T11:24:18.720Z,51.00
2018-11-06T11:26:44.734Z,51.12
2018-11-06T11:29:10.774Z,50.75
2018-11-06T11:31:36.784Z,50.68
2018-11-06T11:34:02.768Z,50.91
2018-11-06T11:36:28.795Z,50.74
2018-11-06T11:38:54.876Z,50.75
2018-11-06T11:41:21.027Z,50.54
2018-11-06T11:43:47.009Z,50.57
2018-11-06T11:46:13.011Z,50.62
2018-11-06T11:48:39.066Z,50.56
2018-11-06T11:51:05.083Z,50.34
2018-11-06T11:53:31.120Z,50.43
2018-11-06T11:55:57.128Z,50.36
2018-11-06T11:58:23.144Z,50.31
2018-11-06T12:00:49.141Z,50.27
2018-11-06T12:03:15.153Z,50.28
2018-11-06T12:05:41.157Z,50.23
2018-11-06T12:08:07.245Z,50.15
2018-11-06T12:10:33.246Z,50.16
2018-11-06T12:12:59.236Z,50.14
2018-11-06T12:15:25.250Z,50.20
2018-11-06T12:17:51.277Z,50.22
2018-11-06T12:20:17.269Z,50.19
2018-11-06T12:22:43.250Z,50.07
2018-11-06T12:25:09.483Z,49.99
2018-11-06T12:27:35.301Z,50.06
2018-11-06T12:30:01.285Z,50.00
2018-11-06T12:32:27.289Z,49.98
2018-11-06T12:34:53.326Z,49.86
2018-11-06T12:37:19.317Z,49.90
2018-11-06T12:39:45.330Z,49.83
2018-11-06T12:42:11.322Z,49.86
2018-11-06T12:44:37.491Z,49.70
2018-11-06T12:47:03.517Z,49.73
2018-11-06T12:49:29.512Z,49.61
2018-11-06T12:51:55.525Z,49.60
2018-11-06T12:54:21.511Z,49.56
2018-11-06T12:56:47.518Z,49.50
2018-11-06T12:59:13.516Z,49.48
2018-11-06T13:01:39.535Z,49.58
2018-11-06T13:04:05.647Z,49.51
2018-11-06T13:06:31.621Z,49.49
2018-11-06T13:08:57.606Z,49.66
2018-11-06T13:11:23.621Z,49.70
2018-11-06T13:13:49.601Z,49.75
2018-11-06T13:16:15.690Z,49.66
2018-11-06T13:18:41.649Z,49.59
2018-11-06T13:21:07.657Z,49.71
2018-11-06T13:23:33.654Z,49.90
2018-11-06T13:25:59.727Z,49.86
2018-11-06T13:28:25.712Z,49.69
2018-11-06T13:30:51.734Z,50.01
2018-11-06T13:33:17.711Z,50.17
2018-11-06T13:35:43.714Z,50.25
2018-11-06T13:38:09.701Z,50.08
2018-11-06T13:40:35.719Z,50.40
2018-11-06T13:43:01.757Z,50.24
2018-11-06T13:45:27.810Z,50.52
2018-11-06T13:47:53.672Z,50.40
2018-11-06T13:50:19.696Z,50.58
2018-11-06T13:52:45.716Z,50.20
2018-11-06T13:55:11.727Z,50.31
2018-11-06T13:57:37.722Z,50.79
2018-11-06T14:00:04.694Z,50.82
2018-11-06T14:02:30.706Z,50.67
2018-11-06T14:04:56.711Z,50.47
2018-11-06T14:07:22.698Z,50.78
2018-11-06T14:09:48.719Z,50.73
2018-11-06T14:12:14.770Z,50.84
2018-11-06T14:14:40.829Z,50.80
2018-11-06T14:17:06.866Z,50.69
2018-11-06T14:19:32.911Z,50.90
2018-11-06T14:21:58.890Z,50.96
2018-11-06T14:24:24.885Z,50.94
2018-11-06T14:26:50.908Z,50.93
2018-11-06T14:29:16.909Z,50.94
2018-11-06T14:31:43.016Z,50.74
2018-11-06T14:34:08.949Z,51.06
2018-11-06T14:36:34.940Z,50.97
2018-11-06T14:39:00.935Z,50.87
2018-11-06T14:41:26.939Z,50.91
2018-11-06T14:43:54.928Z,51.01
2018-11-06T14:46:18.919Z,50.78
2018-11-06T14:48:45.113Z,51.05
2018-11-06T14:51:10.925Z,50.82
2018-11-06T14:53:36.918Z,50.83
2018-11-06T14:56:02.989Z,50.78
2018-11-06T14:58:28.936Z,50.92
2018-11-06T15:00:54.913Z,50.88
2018-11-06T15:03:20.983Z,50.84
2018-11-06T15:05:46.890Z,50.85
2018-11-06T15:08:12.874Z,50.95
2018-11-06T15:10:38.872Z,50.86
2018-11-06T15:13:04.884Z,50.87
2018-11-06T15:15:30.877Z,50.81
2018-11-06T15:17:56.862Z,50.91
2018-11-06T15:20:22.872Z,50.90
2018-11-06T15:22:48.856Z,50.88
2018-11-06T15:25:14.849Z,50.85
2018-11-06T15:27:40.861Z,50.89
2018-11-06T15:30:06.869Z,50.88
2018-11-06T15:32:32.922Z,50.92
2018-11-06T15:34:58.937Z,50.89
2018-11-06T15:37:24.917Z,50.85
2018-11-06T15:39:51.014Z,50.86
2018-11-06T15:42:16.927Z,50.87
2018-11-06T15:44:42.934Z,50.88
2018-11-06T15:47:08.956Z,50.83
2018-11-06T15:49:34.908Z,50.82
2018-11-06T15:52:00.990Z,50.79
2018-11-06T15:54:27.012Z,50.75
2018-11-06T15:56:53.017Z,50.75
2018-11-06T15:59:18.967Z,50.78
2018-11-06T16:01:44.956Z,50.73
2018-11-06T16:04:10.996Z,50.72
2018-11-06T16:06:36.986Z,50.71
2018-11-06T16:09:03.002Z,50.67
2018-11-06T16:11:28.989Z,50.69
2018-11-06T16:13:55.003Z,50.66
2018-11-06T16:16:20.990Z,50.64
2018-11-06T16:18:47.011Z,50.65
2018-11-06T16:21:12.998Z,50.62
2018-11-06T16:23:38.983Z,50.65
2018-11-06T16:26:04.999Z,50.66
2018-11-06T16:28:30.983Z,50.64
2018-11-06T16:30:57.001Z,50.70
2018-11-06T16:33:23.003Z,50.67
2018-11-06T16:35:49.010Z,50.68
2018-11-06T16:38:15.010Z,50.68
2018-11-06T16:40:40.981Z,50.68
2018-11-06T16:43:07.013Z,50.66
2018-11-06T16:45:33.012Z,50.67
2018-11-06T16:47:59.017Z,50.68
2018-11-06T16:50:25.018Z,50.85
2018-11-06T16:52:51.063Z,50.88
2018-11-06T16:55:17.033Z,50.92
2018-11-06T16:57:43.043Z,50.97
2018-11-06T17:00:09.141Z,51.29
2018-11-06T17:02:35.133Z,51.12
2018-11-06T17:05:01.167Z,51.07
2018-11-06T17:07:27.131Z,51.04
2018-11-06T17:09:53.122Z,51.07
2018-11-06T17:12:19.228Z,51.33
2018-11-06T17:14:45.547Z,51.88
2018-11-06T17:17:11.569Z,51.58
2018-11-06T17:19:37.535Z,52.30
2018-11-06T17:22:03.529Z,51.99
2018-11-06T17:24:29.551Z,51.89
2018-11-06T17:26:55.520Z,52.03
2018-11-06T17:29:21.515Z,51.79
2018-11-06T17:31:47.532Z,51.74
2018-11-06T17:34:13.624Z,51.80
2018-11-06T17:36:39.572Z,51.59
2018-11-06T17:39:05.554Z,51.54
2018-11-06T17:41:31.560Z,51.93
2018-11-06T17:43:57.560Z,52.50
2018-11-06T17:46:23.545Z,51.92
2018-11-06T17:48:49.525Z,51.75
2018-11-06T17:51:15.577Z,51.59
2018-11-06T17:53:41.596Z,51.63
2018-11-06T17:56:07.583Z,51.53
2018-11-06T17:58:33.575Z,51.56
2018-11-06T18:00:59.563Z,51.62
2018-11-06T18:03:25.575Z,51.71
2018-11-06T18:05:51.577Z,51.75
2018-11-06T18:08:18.708Z,52.88
2018-11-06T18:10:44.862Z,53.17
2018-11-06T18:13:10.805Z,53.72
2018-11-06T18:15:36.831Z,53.31
2018-11-06T18:18:02.875Z,53.53
2018-11-06T18:20:28.848Z,54.35
2018-11-06T18:22:54.833Z,54.48
2018-11-06T18:25:21.011Z,54.65
2018-11-06T18:27:47.053Z,54.28
2018-11-06T18:30:13.031Z,54.33
2018-11-06T18:32:39.898Z,54.92
2018-11-06T18:35:05.897Z,54.56
2018-11-06T18:37:32.224Z,53.74
2018-11-06T18:39:58.201Z,54.47
2018-11-06T18:42:24.189Z,53.84
2018-11-06T18:44:50.220Z,54.58
2018-11-06T18:47:16.217Z,54.61
2018-11-06T18:49:42.210Z,55.59
2018-11-06T18:52:08.200Z,55.40
2018-11-06T18:54:34.208Z,54.82
2018-11-06T18:57:00.217Z,55.02
2018-11-06T18:59:26.221Z,55.02
2018-11-06T19:01:52.236Z,55.36
2018-11-06T19:04:18.298Z,55.08
2018-11-06T19:06:44.291Z,55.14
2018-11-06T19:09:10.308Z,55.11
2018-11-06T19:11:36.287Z,55.28
2018-11-06T19:14:04.709Z,54.39
2018-11-06T19:16:30.705Z,54.97
2018-11-06T19:18:56.689Z,54.70
2018-11-06T19:21:22.673Z,54.54
2018-11-06T19:23:48.668Z,54.68
2018-11-06T19:26:14.669Z,55.71
2018-11-06T19:28:40.664Z,55.34
2018-11-06T19:31:06.711Z,55.34
2018-11-06T19:33:32.700Z,56.43
2018-11-06T19:35:58.684Z,55.89
2018-11-06T19:38:24.721Z,54.95
2018-11-06T19:40:50.742Z,55.57
2018-11-06T19:43:16.758Z,55.83
2018-11-06T19:45:42.771Z,55.50
2018-11-06T19:48:08.767Z,55.80
2018-11-06T19:50:34.778Z,55.86
2018-11-06T19:53:00.812Z,56.65
2018-11-06T19:55:26.819Z,56.01
2018-11-06T19:57:52.826Z,55.84
2018-11-06T20:00:18.819Z,55.95
2018-11-06T20:02:44.843Z,55.47
2018-11-06T20:05:10.888Z,55.76
2018-11-06T20:07:36.850Z,55.18
2018-11-06T20:10:02.854Z,55.56
2018-11-06T20:12:28.952Z,55.49
2018-11-06T20:14:54.848Z,55.15
2018-11-06T20:17:20.895Z,55.42
2018-11-06T20:19:46.876Z,54.99
2018-11-06T20:22:12.873Z,54.94
2018-11-06T20:24:38.882Z,54.92
2018-11-06T20:27:04.873Z,55.36
2018-11-06T20:29:30.877Z,54.75
2018-11-06T20:31:56.891Z,54.84
2018-11-06T20:34:22.905Z,55.05
2018-11-06T20:36:48.911Z,54.65
2018-11-06T20:39:14.896Z,54.81
2018-11-06T20:41:40.930Z,54.71
2018-11-06T20:44:06.916Z,54.68
2018-11-06T20:46:32.942Z,54.43
2018-11-06T20:48:58.968Z,54.45
2018-11-06T20:51:24.942Z,54.33
2018-11-06T20:53:50.927Z,54.71
2018-11-06T20:56:16.934Z,54.39
2018-11-06T20:58:42.934Z,54.28
2018-11-06T21:01:08.995Z,54.00
2018-11-06T21:03:34.989Z,53.91
2018-11-06T21:06:01.004Z,53.69
2018-11-06T21:08:26.997Z,53.47
2018-11-06T21:10:53.097Z,53.33
2018-11-06T21:13:19.041Z,53.21
2018-11-06T21:15:45.018Z,53.18
2018-11-06T21:18:11.006Z,53.09
2018-11-06T21:20:36.974Z,53.05
2018-11-06T21:23:02.980Z,52.98
2018-11-06T21:25:29.023Z,52.89
2018-11-06T21:27:54.986Z,52.84
2018-11-06T21:30:20.997Z,52.77
2018-11-06T21:32:46.999Z,52.75
2018-11-06T21:35:12.984Z,52.70
2018-11-06T21:37:39.948Z,52.66
2018-11-06T21:40:05.866Z,52.60
2018-11-06T21:42:31.922Z,52.55
2018-11-06T21:44:57.932Z,52.51
2018-11-06T21:47:23.919Z,52.47
2018-11-06T21:49:49.900Z,52.42
2018-11-06T21:52:15.910Z,52.41
2018-11-06T21:54:41.991Z,52.33
2018-11-06T21:57:07.910Z,52.30
2018-11-06T21:59:33.914Z,52.28
2018-11-06T22:01:59.899Z,52.25
2018-11-06T22:04:25.880Z,52.22
2018-11-06T22:06:51.869Z,52.22
2018-11-06T22:09:17.856Z,52.17
2018-11-06T22:11:43.869Z,52.15
2018-11-06T22:14:09.876Z,52.12
2018-11-06T22:16:35.886Z,52.08
2018-11-06T22:19:01.883Z,52.04
2018-11-06T22:21:27.896Z,52.06
2018-11-06T22:23:53.880Z,51.98
2018-11-06T22:26:19.861Z,52.00
2018-11-06T22:28:45.868Z,51.99
2018-11-06T22:31:11.880Z,51.88
2018-11-06T22:33:37.864Z,51.90
2018-11-06T22:36:03.847Z,51.88
2018-11-06T22:38:29.892Z,51.83
2018-11-06T22:40:55.867Z,51.80
2018-11-06T22:43:21.886Z,51.74
2018-11-06T22:45:47.882Z,51.76
2018-11-06T22:48:13.894Z,51.75
2018-11-06T22:50:39.896Z,51.75
2018-11-06T22:53:05.918Z,51.72
2018-11-06T22:55:31.885Z,51.68
2018-11-06T22:57:57.903Z,51.66
2018-11-06T23:00:23.884Z,51.65
2018-11-06T23:02:49.890Z,51.54
2018-11-06T23:05:15.903Z,51.64
2018-11-06T23:07:41.922Z,51.50
2018-11-06T23:10:07.922Z,51.52
2018-11-06T23:12:33.936Z,51.47
2018-11-06T23:14:59.951Z,51.47
2018-11-06T23:17:25.940Z,51.46
2018-11-06T23:19:51.965Z,51.49
2018-11-06T23:22:17.969Z,51.38
2018-11-06T23:24:44.020Z,51.41
2018-11-06T23:27:09.996Z,51.40
2018-11-06T23:29:36.001Z,51.30
2018-11-06T23:32:01.993Z,51.27
2018-11-06T23:34:27.977Z,51.33
2018-11-06T23:36:53.965Z,51.20
2018-11-06T23:39:19.943Z,51.31
2018-11-06T23:41:45.933Z,51.24
2018-11-06T23:44:11.946Z,51.18
2018-11-06T23:46:37.923Z,51.24
2018-11-06T23:49:03.908Z,51.16
2018-11-06T23:51:29.918Z,51.09
2018-11-06T23:53:55.896Z,51.12
2018-11-06T23:56:21.914Z,51.17
2018-11-06T23:58:47.916Z,51.06
